sensor_id;sensor_type;location;lat;lon;timestamp;P1;durP1;ratioP1;P2;durP2;ratioP2
24995;SDS011;13016;52.162;21.034;2023-07-29T00:04:41;5.80;;;4.10;;
24995;SDS011;13016;52.162;21.034;2023-07-29T00:10:41;5.40;;;3.60;;
24995;SDS011;13016;52.162;21.034;2023-07-29T00:16:42;6.40;;;4.00;;
24995;SDS011;13016;52.162;21.034;2023-07-29T00:22:42;7.20;;;4.30;;
24995;SDS011;13016;52.162;21.034;2023-07-29T00:28:42;5.80;;;4.40;;
24995;SDS011;13016;52.162;21.034;2023-07-29T00:34:42;5.80;;;4.50;;
24995;SDS011;13016;52.162;21.034;2023-07-29T00:40:43;4.30;;;3.90;;
24995;SDS011;13016;52.162;21.034;2023-07-29T00:46:43;6.20;;;5.00;;
24995;SDS011;13016;52.162;21.034;2023-07-29T00:52:46;7.40;;;4.70;;
24995;SDS011;13016;52.162;21.034;2023-07-29T00:58:46;6.10;;;4.90;;
24995;SDS011;13016;52.162;21.034;2023-07-29T01:04:51;8.50;;;5.80;;
24995;SDS011;13016;52.162;21.034;2023-07-29T01:17:33;9.60;;;6.10;;
24995;SDS011;13016;52.162;21.034;2023-07-29T01:23:35;7.20;;;6.40;;
24995;SDS011;13016;52.162;21.034;2023-07-29T01:29:36;9.10;;;7.10;;
24995;SDS011;13016;52.162;21.034;2023-07-29T01:35:40;9.70;;;7.80;;
24995;SDS011;13016;52.162;21.034;2023-07-29T01:41:49;11.10;;;8.90;;
24995;SDS011;13016;52.162;21.034;2023-07-29T01:47:51;8.90;;;7.90;;
24995;SDS011;13016;52.162;21.034;2023-07-29T01:59:52;11.40;;;8.10;;
24995;SDS011;13016;52.162;21.034;2023-07-29T02:05:52;11.30;;;8.90;;
24995;SDS011;13016;52.162;21.034;2023-07-29T02:11:52;11.70;;;8.70;;
24995;SDS011;13016;52.162;21.034;2023-07-29T02:17:52;12.60;;;8.30;;
24995;SDS011;13016;52.162;21.034;2023-07-29T02:23:53;10.80;;;7.90;;
24995;SDS011;13016;52.162;21.034;2023-07-29T02:29:53;14.30;;;7.80;;
24995;SDS011;13016;52.162;21.034;2023-07-29T02:35:54;11.60;;;8.80;;
24995;SDS011;13016;52.162;21.034;2023-07-29T02:41:54;12.00;;;8.70;;
24995;SDS011;13016;52.162;21.034;2023-07-29T02:47:54;12.00;;;7.50;;
24995;SDS011;13016;52.162;21.034;2023-07-29T02:53:54;13.90;;;8.70;;
24995;SDS011;13016;52.162;21.034;2023-07-29T02:59:55;12.50;;;9.00;;
24995;SDS011;13016;52.162;21.034;2023-07-29T03:06:02;12.10;;;9.40;;
24995;SDS011;13016;52.162;21.034;2023-07-29T03:12:07;10.60;;;8.60;;
24995;SDS011;13016;52.162;21.034;2023-07-29T03:18:07;14.50;;;9.40;;
24995;SDS011;13016;52.162;21.034;2023-07-29T03:24:07;11.20;;;8.60;;
24995;SDS011;13016;52.162;21.034;2023-07-29T03:30:08;14.70;;;10.50;;
24995;SDS011;13016;52.162;21.034;2023-07-29T03:36:08;13.20;;;10.60;;
24995;SDS011;13016;52.162;21.034;2023-07-29T03:42:08;15.30;;;11.10;;
24995;SDS011;13016;52.162;21.034;2023-07-29T03:48:09;11.00;;;9.60;;
24995;SDS011;13016;52.162;21.034;2023-07-29T03:54:09;11.80;;;10.10;;
24995;SDS011;13016;52.162;21.034;2023-07-29T04:00:09;12.40;;;8.90;;
24995;SDS011;13016;52.162;21.034;2023-07-29T04:06:10;13.00;;;8.50;;
24995;SDS011;13016;52.162;21.034;2023-07-29T04:12:10;9.50;;;8.40;;
24995;SDS011;13016;52.162;21.034;2023-07-29T04:18:11;11.20;;;9.30;;
24995;SDS011;13016;52.162;21.034;2023-07-29T04:24:11;11.30;;;8.80;;
24995;SDS011;13016;52.162;21.034;2023-07-29T04:30:11;10.80;;;8.80;;
24995;SDS011;13016;52.162;21.034;2023-07-29T04:36:11;12.20;;;10.00;;
24995;SDS011;13016;52.162;21.034;2023-07-29T04:42:11;12.60;;;9.90;;
24995;SDS011;13016;52.162;21.034;2023-07-29T04:48:12;13.10;;;10.70;;
24995;SDS011;13016;52.162;21.034;2023-07-29T04:54:12;13.40;;;10.70;;
24995;SDS011;13016;52.162;21.034;2023-07-29T05:00:12;15.80;;;11.50;;
24995;SDS011;13016;52.162;21.034;2023-07-29T05:06:12;14.30;;;12.10;;
24995;SDS011;13016;52.162;21.034;2023-07-29T05:12:13;14.90;;;12.80;;
24995;SDS011;13016;52.162;21.034;2023-07-29T05:18:13;15.40;;;12.30;;
24995;SDS011;13016;52.162;21.034;2023-07-29T05:24:14;13.50;;;11.50;;
24995;SDS011;13016;52.162;21.034;2023-07-29T05:30:14;15.10;;;12.60;;
24995;SDS011;13016;52.162;21.034;2023-07-29T05:36:14;14.00;;;12.30;;
24995;SDS011;13016;52.162;21.034;2023-07-29T05:42:15;15.30;;;12.80;;
24995;SDS011;13016;52.162;21.034;2023-07-29T05:48:15;17.20;;;13.40;;
24995;SDS011;13016;52.162;21.034;2023-07-29T05:54:17;16.50;;;14.00;;
24995;SDS011;13016;52.162;21.034;2023-07-29T06:00:18;15.00;;;13.30;;
24995;SDS011;13016;52.162;21.034;2023-07-29T06:06:18;16.00;;;13.30;;
24995;SDS011;13016;52.162;21.034;2023-07-29T06:12:18;16.70;;;12.40;;
24995;SDS011;13016;52.162;21.034;2023-07-29T06:18:20;13.90;;;11.60;;
24995;SDS011;13016;52.162;21.034;2023-07-29T06:24:20;13.70;;;11.80;;
24995;SDS011;13016;52.162;21.034;2023-07-29T06:30:20;12.90;;;11.50;;
24995;SDS011;13016;52.162;21.034;2023-07-29T06:36:21;15.80;;;12.70;;
24995;SDS011;13016;52.162;21.034;2023-07-29T06:42:21;16.40;;;12.20;;
24995;SDS011;13016;52.162;21.034;2023-07-29T06:48:21;13.80;;;11.40;;
24995;SDS011;13016;52.162;21.034;2023-07-29T06:54:25;13.20;;;11.50;;
24995;SDS011;13016;52.162;21.034;2023-07-29T07:00:25;12.20;;;10.70;;
24995;SDS011;13016;52.162;21.034;2023-07-29T07:06:26;10.80;;;9.80;;
24995;SDS011;13016;52.162;21.034;2023-07-29T07:12:26;10.70;;;9.60;;
24995;SDS011;13016;52.162;21.034;2023-07-29T07:18:26;11.10;;;9.60;;
24995;SDS011;13016;52.162;21.034;2023-07-29T07:24:27;16.50;;;10.60;;
24995;SDS011;13016;52.162;21.034;2023-07-29T07:30:27;10.20;;;9.10;;
24995;SDS011;13016;52.162;21.034;2023-07-29T07:36:27;8.90;;;8.10;;
24995;SDS011;13016;52.162;21.034;2023-07-29T07:42:27;9.60;;;8.60;;
24995;SDS011;13016;52.162;21.034;2023-07-29T07:48:28;8.40;;;7.60;;
24995;SDS011;13016;52.162;21.034;2023-07-29T08:00:28;6.80;;;6.10;;
24995;SDS011;13016;52.162;21.034;2023-07-29T08:06:29;6.50;;;5.70;;
24995;SDS011;13016;52.162;21.034;2023-07-29T08:12:30;8.90;;;6.70;;
24995;SDS011;13016;52.162;21.034;2023-07-29T08:24:30;4.70;;;4.30;;
24995;SDS011;13016;52.162;21.034;2023-07-29T08:30:30;4.50;;;4.10;;
24995;SDS011;13016;52.162;21.034;2023-07-29T08:36:31;8.50;;;4.30;;
24995;SDS011;13016;52.162;21.034;2023-07-29T08:42:31;4.00;;;3.70;;
24995;SDS011;13016;52.162;21.034;2023-07-29T08:48:40;6.50;;;3.50;;
24995;SDS011;13016;52.162;21.034;2023-07-29T08:54:41;3.40;;;3.10;;
24995;SDS011;13016;52.162;21.034;2023-07-29T09:00:41;3.50;;;3.10;;
24995;SDS011;13016;52.162;21.034;2023-07-29T09:06:42;2.70;;;2.50;;
24995;SDS011;13016;52.162;21.034;2023-07-29T09:12:44;3.00;;;2.70;;
24995;SDS011;13016;52.162;21.034;2023-07-29T09:18:47;2.20;;;1.90;;
24995;SDS011;13016;52.162;21.034;2023-07-29T09:24:48;2.30;;;2.10;;
24995;SDS011;13016;52.162;21.034;2023-07-29T09:30:48;3.50;;;2.10;;
24995;SDS011;13016;52.162;21.034;2023-07-29T09:42:51;3.30;;;2.10;;
24995;SDS011;13016;52.162;21.034;2023-07-29T09:48:53;2.50;;;1.90;;
24995;SDS011;13016;52.162;21.034;2023-07-29T09:54:54;2.20;;;2.00;;
24995;SDS011;13016;52.162;21.034;2023-07-29T10:00:54;2.20;;;2.00;;
24995;SDS011;13016;52.162;21.034;2023-07-29T10:06:54;3.80;;;2.20;;
24995;SDS011;13016;52.162;21.034;2023-07-29T10:12:57;2.80;;;2.30;;
24995;SDS011;13016;52.162;21.034;2023-07-29T10:18:58;2.50;;;2.30;;
24995;SDS011;13016;52.162;21.034;2023-07-29T10:25:02;2.40;;;2.20;;
24995;SDS011;13016;52.162;21.034;2023-07-29T10:31:23;3.70;;;2.10;;
24995;SDS011;13016;52.162;21.034;2023-07-29T10:37:24;2.60;;;2.20;;
24995;SDS011;13016;52.162;21.034;2023-07-29T10:49:35;3.10;;;2.40;;
24995;SDS011;13016;52.162;21.034;2023-07-29T10:55:35;1.70;;;1.60;;
24995;SDS011;13016;52.162;21.034;2023-07-29T11:01:35;2.40;;;2.00;;
24995;SDS011;13016;52.162;21.034;2023-07-29T11:07:43;2.30;;;2.10;;
24995;SDS011;13016;52.162;21.034;2023-07-29T11:13:45;2.40;;;1.80;;
24995;SDS011;13016;52.162;21.034;2023-07-29T11:19:45;2.30;;;2.10;;
24995;SDS011;13016;52.162;21.034;2023-07-29T11:25:46;2.40;;;2.20;;
24995;SDS011;13016;52.162;21.034;2023-07-29T11:31:46;2.40;;;2.20;;
24995;SDS011;13016;52.162;21.034;2023-07-29T11:37:49;2.30;;;1.90;;
24995;SDS011;13016;52.162;21.034;2023-07-29T11:43:50;3.80;;;2.10;;
24995;SDS011;13016;52.162;21.034;2023-07-29T11:49:50;2.60;;;2.30;;
24995;SDS011;13016;52.162;21.034;2023-07-29T11:55:51;2.20;;;2.00;;
24995;SDS011;13016;52.162;21.034;2023-07-29T12:01:51;4.80;;;2.20;;
24995;SDS011;13016;52.162;21.034;2023-07-29T12:07:53;3.00;;;2.10;;
24995;SDS011;13016;52.162;21.034;2023-07-29T12:13:53;4.00;;;2.20;;
24995;SDS011;13016;52.162;21.034;2023-07-29T12:19:54;2.20;;;1.80;;
24995;SDS011;13016;52.162;21.034;2023-07-29T12:25:56;3.60;;;2.10;;
24995;SDS011;13016;52.162;21.034;2023-07-29T12:31:59;2.50;;;2.10;;
24995;SDS011;13016;52.162;21.034;2023-07-29T12:38:01;3.90;;;2.30;;
24995;SDS011;13016;52.162;21.034;2023-07-29T12:44:01;2.80;;;1.90;;
24995;SDS011;13016;52.162;21.034;2023-07-29T12:50:03;5.50;;;2.10;;
24995;SDS011;13016;52.162;21.034;2023-07-29T12:56:03;2.40;;;1.90;;
24995;SDS011;13016;52.162;21.034;2023-07-29T13:02:03;2.60;;;1.90;;
24995;SDS011;13016;52.162;21.034;2023-07-29T13:08:04;2.10;;;1.90;;
24995;SDS011;13016;52.162;21.034;2023-07-29T13:14:04;2.80;;;1.90;;
24995;SDS011;13016;52.162;21.034;2023-07-29T13:20:05;3.50;;;2.20;;
24995;SDS011;13016;52.162;21.034;2023-07-29T13:26:06;4.50;;;2.40;;
24995;SDS011;13016;52.162;21.034;2023-07-29T13:32:06;2.20;;;2.00;;
24995;SDS011;13016;52.162;21.034;2023-07-29T13:38:07;3.80;;;2.00;;
24995;SDS011;13016;52.162;21.034;2023-07-29T13:44:07;2.50;;;2.00;;
24995;SDS011;13016;52.162;21.034;2023-07-29T13:50:07;2.50;;;2.00;;
24995;SDS011;13016;52.162;21.034;2023-07-29T13:56:08;2.60;;;2.40;;
24995;SDS011;13016;52.162;21.034;2023-07-29T14:02:08;3.60;;;2.10;;
24995;SDS011;13016;52.162;21.034;2023-07-29T14:08:08;2.90;;;1.90;;
24995;SDS011;13016;52.162;21.034;2023-07-29T14:14:08;2.50;;;2.10;;
24995;SDS011;13016;52.162;21.034;2023-07-29T14:20:09;1.80;;;1.70;;
24995;SDS011;13016;52.162;21.034;2023-07-29T14:26:10;3.60;;;2.50;;
24995;SDS011;13016;52.162;21.034;2023-07-29T14:32:10;4.70;;;1.80;;
24995;SDS011;13016;52.162;21.034;2023-07-29T14:38:10;3.30;;;2.30;;
24995;SDS011;13016;52.162;21.034;2023-07-29T14:44:11;3.00;;;2.00;;
24995;SDS011;13016;52.162;21.034;2023-07-29T14:50:11;3.10;;;1.90;;
24995;SDS011;13016;52.162;21.034;2023-07-29T14:56:12;2.40;;;1.90;;
24995;SDS011;13016;52.162;21.034;2023-07-29T15:02:12;5.80;;;1.80;;
24995;SDS011;13016;52.162;21.034;2023-07-29T15:08:12;2.60;;;1.80;;
24995;SDS011;13016;52.162;21.034;2023-07-29T15:14:13;2.20;;;1.90;;
24995;SDS011;13016;52.162;21.034;2023-07-29T15:20:13;2.00;;;1.70;;
24995;SDS011;13016;52.162;21.034;2023-07-29T15:26:13;5.80;;;1.90;;
24995;SDS011;13016;52.162;21.034;2023-07-29T15:32:13;3.20;;;2.00;;
24995;SDS011;13016;52.162;21.034;2023-07-29T15:38:14;2.90;;;1.70;;
24995;SDS011;13016;52.162;21.034;2023-07-29T15:44:15;3.70;;;1.90;;
24995;SDS011;13016;52.162;21.034;2023-07-29T15:50:15;2.00;;;1.80;;
24995;SDS011;13016;52.162;21.034;2023-07-29T15:56:15;2.60;;;1.90;;
24995;SDS011;13016;52.162;21.034;2023-07-29T16:02:16;2.50;;;2.00;;
24995;SDS011;13016;52.162;21.034;2023-07-29T16:08:16;2.30;;;2.10;;
24995;SDS011;13016;52.162;21.034;2023-07-29T16:14:16;4.20;;;2.20;;
24995;SDS011;13016;52.162;21.034;2023-07-29T16:20:16;3.20;;;1.90;;
24995;SDS011;13016;52.162;21.034;2023-07-29T16:26:17;2.10;;;1.90;;
24995;SDS011;13016;52.162;21.034;2023-07-29T16:32:18;2.40;;;2.10;;
24995;SDS011;13016;52.162;21.034;2023-07-29T16:38:18;3.00;;;2.30;;
24995;SDS011;13016;52.162;21.034;2023-07-29T16:44:18;3.80;;;2.10;;
24995;SDS011;13016;52.162;21.034;2023-07-29T16:50:19;2.80;;;2.50;;
24995;SDS011;13016;52.162;21.034;2023-07-29T17:02:19;3.40;;;2.30;;
24995;SDS011;13016;52.162;21.034;2023-07-29T17:08:19;10.90;;;6.50;;
24995;SDS011;13016;52.162;21.034;2023-07-29T17:14:20;2.40;;;2.20;;
24995;SDS011;13016;52.162;21.034;2023-07-29T17:20:20;3.20;;;2.20;;
24995;SDS011;13016;52.162;21.034;2023-07-29T17:26:20;3.20;;;2.20;;
24995;SDS011;13016;52.162;21.034;2023-07-29T17:32:20;3.30;;;2.50;;
24995;SDS011;13016;52.162;21.034;2023-07-29T17:38:20;2.50;;;2.30;;
24995;SDS011;13016;52.162;21.034;2023-07-29T17:44:21;2.90;;;2.50;;
24995;SDS011;13016;52.162;21.034;2023-07-29T17:50:21;3.90;;;2.60;;
24995;SDS011;13016;52.162;21.034;2023-07-29T17:56:21;3.60;;;2.80;;
24995;SDS011;13016;52.162;21.034;2023-07-29T18:02:22;2.60;;;2.40;;
24995;SDS011;13016;52.162;21.034;2023-07-29T18:08:22;4.20;;;2.80;;
24995;SDS011;13016;52.162;21.034;2023-07-29T18:14:22;5.00;;;3.10;;
24995;SDS011;13016;52.162;21.034;2023-07-29T18:20:23;4.30;;;3.30;;
24995;SDS011;13016;52.162;21.034;2023-07-29T18:26:23;9.80;;;3.40;;
24995;SDS011;13016;52.162;21.034;2023-07-29T18:32:23;5.90;;;3.00;;
24995;SDS011;13016;52.162;21.034;2023-07-29T18:38:23;3.10;;;2.70;;
24995;SDS011;13016;52.162;21.034;2023-07-29T18:44:24;4.90;;;2.80;;
24995;SDS011;13016;52.162;21.034;2023-07-29T18:50:24;3.70;;;2.90;;
24995;SDS011;13016;52.162;21.034;2023-07-29T18:56:24;3.60;;;3.20;;
24995;SDS011;13016;52.162;21.034;2023-07-29T19:02:24;4.10;;;3.30;;
24995;SDS011;13016;52.162;21.034;2023-07-29T19:08:24;4.10;;;3.30;;
24995;SDS011;13016;52.162;21.034;2023-07-29T19:14:25;5.00;;;3.20;;
24995;SDS011;13016;52.162;21.034;2023-07-29T19:20:25;4.70;;;3.50;;
24995;SDS011;13016;52.162;21.034;2023-07-29T19:26:25;4.60;;;3.70;;
24995;SDS011;13016;52.162;21.034;2023-07-29T19:32:26;5.60;;;3.40;;
24995;SDS011;13016;52.162;21.034;2023-07-29T19:38:26;3.80;;;3.50;;
24995;SDS011;13016;52.162;21.034;2023-07-29T19:44:26;4.30;;;3.40;;
24995;SDS011;13016;52.162;21.034;2023-07-29T19:50:26;4.20;;;3.60;;
24995;SDS011;13016;52.162;21.034;2023-07-29T19:56:26;4.10;;;3.60;;
24995;SDS011;13016;52.162;21.034;2023-07-29T20:02:27;4.40;;;3.60;;
24995;SDS011;13016;52.162;21.034;2023-07-29T20:08:27;5.90;;;3.90;;
24995;SDS011;13016;52.162;21.034;2023-07-29T20:14:27;4.50;;;4.00;;
24995;SDS011;13016;52.162;21.034;2023-07-29T20:20:27;4.60;;;3.90;;
24995;SDS011;13016;52.162;21.034;2023-07-29T20:26:28;4.70;;;4.30;;
24995;SDS011;13016;52.162;21.034;2023-07-29T20:32:28;4.70;;;4.20;;
24995;SDS011;13016;52.162;21.034;2023-07-29T20:38:28;4.70;;;4.00;;
24995;SDS011;13016;52.162;21.034;2023-07-29T20:44:29;5.00;;;3.80;;
24995;SDS011;13016;52.162;21.034;2023-07-29T20:50:29;4.00;;;3.60;;
24995;SDS011;13016;52.162;21.034;2023-07-29T20:56:29;5.30;;;3.70;;
24995;SDS011;13016;52.162;21.034;2023-07-29T21:02:29;5.20;;;4.10;;
24995;SDS011;13016;52.162;21.034;2023-07-29T21:08:30;5.00;;;4.00;;
24995;SDS011;13016;52.162;21.034;2023-07-29T21:14:31;8.30;;;3.40;;
24995;SDS011;13016;52.162;21.034;2023-07-29T21:20:31;14.00;;;3.90;;
24995;SDS011;13016;52.162;21.034;2023-07-29T21:26:31;5.30;;;3.50;;
24995;SDS011;13016;52.162;21.034;2023-07-29T21:32:31;5.60;;;2.50;;
24995;SDS011;13016;52.162;21.034;2023-07-29T21:38:32;8.60;;;2.10;;
24995;SDS011;13016;52.162;21.034;2023-07-29T21:44:33;6.70;;;1.80;;
24995;SDS011;13016;52.162;21.034;2023-07-29T21:50:33;3.60;;;1.90;;
24995;SDS011;13016;52.162;21.034;2023-07-29T21:56:34;10.10;;;1.90;;
24995;SDS011;13016;52.162;21.034;2023-07-29T22:02:34;2.70;;;2.00;;
24995;SDS011;13016;52.162;21.034;2023-07-29T22:08:34;4.80;;;2.40;;
24995;SDS011;13016;52.162;21.034;2023-07-29T22:14:34;3.00;;;2.10;;
24995;SDS011;13016;52.162;21.034;2023-07-29T22:20:35;5.70;;;2.50;;
24995;SDS011;13016;52.162;21.034;2023-07-29T22:26:35;2.70;;;1.90;;
24995;SDS011;13016;52.162;21.034;2023-07-29T22:32:35;3.70;;;2.20;;
24995;SDS011;13016;52.162;21.034;2023-07-29T22:38:35;2.70;;;2.10;;
24995;SDS011;13016;52.162;21.034;2023-07-29T22:44:37;3.80;;;2.30;;
24995;SDS011;13016;52.162;21.034;2023-07-29T22:50:37;4.10;;;2.30;;
24995;SDS011;13016;52.162;21.034;2023-07-29T22:56:37;4.00;;;2.10;;
24995;SDS011;13016;52.162;21.034;2023-07-29T23:02:38;2.50;;;2.20;;
24995;SDS011;13016;52.162;21.034;2023-07-29T23:08:38;3.10;;;2.20;;
24995;SDS011;13016;52.162;21.034;2023-07-29T23:14:38;5.30;;;2.30;;
24995;SDS011;13016;52.162;21.034;2023-07-29T23:20:39;4.80;;;2.30;;
24995;SDS011;13016;52.162;21.034;2023-07-29T23:26:39;4.10;;;2.30;;
24995;SDS011;13016;52.162;21.034;2023-07-29T23:32:39;3.90;;;2.30;;
24995;SDS011;13016;52.162;21.034;2023-07-29T23:38:40;4.20;;;2.50;;
24995;SDS011;13016;52.162;21.034;2023-07-29T23:44:41;4.10;;;2.20;;
24995;SDS011;13016;52.162;21.034;2023-07-29T23:50:41;3.20;;;2.40;;
24995;SDS011;13016;52.162;21.034;2023-07-29T23:56:43;4.10;;;2.40;;
